Latest Coastal Weather Observations for Gold Coast Seaway

IDQ60701

Issued at 6:35 am EST Saturday 22 November 2014 (issued every 10 minutes, with the page automatically refreshed every 10 minutes)

About coastal observations | Map of coastal stations | Coastal observations for QLD | Marine services | Other Formats
Station Details ID: 040764 Name: GOLD COAST SEAWAY Lat: -27.94 Lon: 153.43 Height: 2.98 m
Data from the previous 72 hours. | See also: Recent months at Gold Coast Seaway
Date/Time
EST
Temp

°C
Wind Pressure Rain
since 9am
mm
Weather Cloud Vis
km
Sea
Height
m
Swell
Dir
 
Speed
knots
Gust
knots
hPa Trend Height
m
Period
s
Dir
22/06:30am 24.6 NNW 9 14 1014.4 - 0.2 - - - - - - -
22/06:00am 24.5 NNW 11 16 1014.0 - 0.2 - - - - - - -
22/05:30am 24.7 N 11 17 1013.8 - 0.2 - - - - - - -
22/05:00am 24.7 N 13 19 1013.4 - 0.2 - - - - - - -
22/04:30am 24.7 N 12 19 1013.0 - 0.2 - - - - - - -
22/04:00am 24.6 N 10 16 1012.4 - 0.2 - - - - - - -
22/03:30am 24.8 N 12 19 1012.2 - 0.2 - - - - - - -
22/03:00am 25.0 NNW 13 19 1012.3 - 0.2 - - - - - - -
22/02:30am 24.8 N 12 17 1012.0 - 0.2 - - - - - - -
22/02:00am 22.7 N 10 13 1011.5 - 0.2 - - - - - - -
22/01:30am 24.6 N 14 19 1011.7 - 0.2 - - - - - - -
22/01:00am 22.1 N 10 14 1012.0 - 0.2 - - - - - - -
22/12:30am 21.6 N 9 11 1012.0 - 0.2 - - - - - - -
22/12:00am 21.6 N 9 11 1012.3 - 0.2 - - - - - - -
 
Date/Time
EST
Temp

°C
Wind Pressure Rain
since 9am
mm
Weather Cloud Vis
km
Sea
Height
m
Swell
Dir
 
Speed
knots
Gust
knots
hPa Trend Height
m
Period
s
Dir
21/11:30pm 22.0 N 8 10 1012.9 - 0.2 - - - - - - -
21/11:00pm 22.7 N 9 11 1013.3 - 0.2 - - - - - - -
21/10:30pm 22.1 N 8 9 1013.5 - 0.2 - - - - - - -
21/10:00pm 23.6 N 7 10 1013.6 - 0.2 - - - - - - -
21/09:30pm 22.6 N 7 9 1013.4 - 0.2 - - - - - - -
21/09:00pm 22.4 N 8 10 1013.6 - 0.2 - - - - - - -
21/08:30pm 21.9 N 7 9 1013.1 - 0.2 - - - - - - -
21/08:00pm 22.0 N 9 10 1012.9 - 0.2 - - - - - - -
21/07:30pm 22.0 N 8 9 1012.9 - 0.2 - - - - - - -
21/07:00pm 22.4 N 11 14 1012.5 - 0.2 - - - - - - -
21/06:30pm 22.5 N 16 18 1012.2 - 0.2 - - - - - - -
21/06:00pm 22.7 N 16 18 1011.9 - 0.2 - - - - - - -
21/05:30pm 23.1 N 17 20 1011.5 - 0.2 - - - - - - -
21/05:00pm 23.5 N 17 20 1011.0 - 0.2 - - - - - - -
21/04:30pm 24.2 N 18 20 1010.9 - 0.2 - - - - - - -
21/04:00pm 24.7 NNE 17 20 1011.2 - 0.2 - - - - - - -
21/03:30pm 25.1 NNE 20 24 1011.3 - 0.2 - - - - - - -
21/03:00pm 26.0 NNE 18 21 1011.4 - 0.2 - - - - - - -
21/02:30pm 25.9 NNE 19 22 1011.5 - 0.2 - - - - - - -
21/02:00pm 25.7 NNE 18 21 1011.8 - 0.2 - - - - - - -
21/01:30pm 25.3 NNE 19 21 1012.2 - 0.2 - - - - - - -
21/01:00pm 26.2 NNE 20 24 1012.5 - 0.2 - - - - - - -
21/12:30pm 26.5 NNE 19 22 1013.0 - 0.2 - - - - - - -
21/12:00pm 26.8 NNE 18 21 1013.6 - 0.2 - - - - - - -
21/11:30am 26.9 NNE 17 20 1014.1 - 0.2 - - - - - - -
21/11:00am 26.3 NNE 19 21 1014.3 - 0.2 - - - - - - -
21/10:30am 26.8 NNE 16 21 1014.8 - 0.0 - - - - - - -
21/10:00am 26.2 NNE 14 18 1015.1 - 0.0 - - - - - - -
21/09:30am 27.2 N 14 21 1015.4 - 0.0 - - - - - - -
21/09:00am 27.2 N 12 16 1015.5 - 0.2 - - - - - - -
21/08:30am 23.9 N 10 13 1015.7 - 0.2 - - - - - - -
21/08:00am 24.1 N 14 16 1015.7 - 0.2 - - - - - - -
21/07:30am 23.5 N 8 10 1015.9 - 0.2 - - - - - - -
21/07:00am 23.2 N 7 10 1015.9 - 0.2 - - - - - - -
21/06:30am 22.8 N 7 9 1015.7 - 0.2 - - - - - - -
21/06:00am 22.7 N 7 9 1015.4 - 0.2 Recent precip. - - - - - -
21/05:30am 22.6 N 7 8 1015.0 - 0.2 - - - - - - -
21/05:00am 22.2 N 7 10 1014.9 - 0.0 - - - - - - -
21/04:30am 22.4 N 7 12 1014.8 - 0.0 - - - - - - -
21/04:00am 22.1 N 8 11 1014.5 - 0.0 - - - - - - -
21/03:30am 22.3 N 10 13 1014.5 - 0.0 - - - - - - -
21/03:00am 22.5 N 11 15 1014.5 - 0.0 - - - - - - -
21/02:30am 22.6 N 9 11 1014.6 - 0.0 - - - - - - -
21/02:00am 22.5 N 11 14 1014.7 - 0.0 - - - - - - -
21/01:30am 22.7 N 8 10 1014.9 - 0.0 - - - - - - -
21/01:00am 22.2 N 9 12 1015.0 - 0.0 - - - - - - -
21/12:30am 22.2 N 8 10 1015.2 - 0.0 - - - - - - -
21/12:00am 22.4 N 8 9 1015.8 - 0.0 - - - - - - -
 
Date/Time
EST
Temp

°C
Wind Pressure Rain
since 9am
mm
Weather Cloud Vis
km
Sea
Height
m
Swell
Dir
 
Speed
knots
Gust
knots
hPa Trend Height
m
Period
s
Dir
20/11:30pm 22.6 N 9 10 1016.1 - 0.0 - - - - - - -
20/11:00pm 22.5 N 9 10 1016.6 - 0.0 - - - - - - -
20/10:30pm 22.5 N 8 12 1016.8 - 0.0 - - - - - - -
20/10:00pm 22.5 N 6 10 1017.0 - 0.0 - - - - - - -
20/09:30pm 22.4 N 9 12 1016.9 - 0.0 - - - - - - -
20/09:00pm 22.6 N 5 6 1016.7 - 0.0 - - - - - - -
20/08:30pm 22.5 N 7 8 1016.4 - 0.0 - - - - - - -
20/08:00pm 22.7 N 9 11 1016.2 - 0.0 - - - - - - -
20/07:30pm 23.0 N 9 12 1016.1 - 0.0 - - - - - - -
20/07:00pm 22.9 N 11 14 1015.6 - 0.0 - - - - - - -
20/06:30pm 23.1 N 15 17 1015.3 - 0.0 - - - - - - -
20/06:00pm 23.4 NNE 15 18 1014.9 - 0.0 - - - - - - -
20/05:30pm 24.0 N 17 20 1014.5 - 0.0 - - - - - - -
20/05:00pm 24.6 NNE 15 18 1014.3 - 0.0 - - - - - - -
20/04:30pm 25.4 NNE 15 17 1014.4 - 0.0 - - - - - - -
20/04:00pm 25.5 NNE 16 18 1014.5 - 0.0 - - - - - - -
20/03:30pm 26.0 NNE 15 17 1014.7 - 0.0 - - - - - - -
20/03:00pm 26.3 NNE 16 17 1014.6 - 0.0 - - - - - - -
20/02:30pm 27.1 NNE 16 18 1014.8 - 0.0 - - - - - - -
20/02:00pm 27.4 NNE 14 15 1015.4 - 0.0 - - - - - - -
20/01:30pm 27.1 NNE 13 15 1015.8 - 0.0 - - - - - - -
20/01:00pm 27.0 N 11 14 1015.9 - 0.0 - - - - - - -
20/12:30pm 26.9 N 11 13 1016.4 - 0.0 - - - - - - -
20/12:00pm 27.1 N 10 11 1016.8 - 0.0 - - - - - - -
20/11:30am 27.1 N 10 11 1017.2 - 0.0 - - - - - - -
20/11:00am 26.3 N 10 11 1017.9 - 0.0 - - - - - - -
20/10:30am 25.8 N 10 11 1018.2 - 0.0 - - - - - - -
20/10:00am 25.6 N 10 11 1018.5 - 0.0 - - - - - - -
20/09:30am 25.4 N 5 9 1018.6 - 0.0 - - - - - - -
20/09:00am 25.5 N 6 8 1018.4 - 2.4 Recent precip. - - - - - -
20/08:30am 25.2 N 5 7 1018.5 - 2.4 - - - - - - -
20/08:00am 24.4 N 6 7 1018.4 - 2.2 - - - - - - -
20/07:30am 24.0 N 6 7 1018.3 - 2.2 - - - - - - -
20/07:00am 23.0 N 4 5 1018.4 - 2.2 - - - - - - -
20/06:30am 22.3 N 5 5 1017.7 - 2.2 - - - - - - -
20/06:00am 21.4 N 5 6 1017.7 - 2.2 - - - - - - -
20/05:30am 21.1 N 4 5 1017.4 - 2.2 - - - - - - -
20/05:00am 20.5 N 5 6 1017.1 - 2.2 - - - - - - -
20/04:30am 20.1 N 5 6 1016.6 - 2.2 - - - - - - -
20/04:00am 20.3 N 5 7 1016.5 - 2.2 - - - - - - -
20/03:30am 20.7 N 5 6 1016.3 - 2.2 - - - - - - -
20/03:00am 20.7 N 7 8 1016.2 - 2.2 - - - - - - -
20/02:30am 20.8 N 7 8 1016.1 - 2.2 - - - - - - -
20/02:00am 21.0 N 7 8 1016.0 - 2.2 - - - - - - -
20/01:30am 21.7 NNW 8 11 1016.0 - 2.2 - - - - - - -
20/01:00am 21.8 NNW 6 8 1016.1 - 2.2 - - - - - - -
20/12:30am 22.0 NNW 8 10 1016.6 - 2.2 - - - - - - -
20/12:00am 22.1 NNW 7 9 1016.9 - 2.2 - - - - - - -
 
Date/Time
EST
Temp

°C
Wind Pressure Rain
since 9am
mm
Weather Cloud Vis
km
Sea
Height
m
Swell
Dir
 
Speed
knots
Gust
knots
hPa Trend Height
m
Period
s
Dir
19/11:30pm 22.1 N 7 9 1017.3 - 2.2 - - - - - - -
19/11:00pm 22.2 NNW 8 11 1017.1 - 2.2 - - - - - - -
19/10:30pm 22.4 NNW 8 13 1017.4 - 2.2 - - - - - - -
19/10:00pm 22.2 NNW 12 18 1017.0 - 2.2 - - - - - - -
19/09:30pm 22.4 N 14 16 1017.1 - 2.2 - - - - - - -
19/09:00pm 22.7 NE 13 16 1017.7 - 2.0 - - - - - - -
19/08:30pm 23.0 SE 7 9 1017.4 - 2.0 - - - - - - -
19/08:00pm 22.9 SE 7 8 1017.0 - 2.0 - - - - - - -
19/07:30pm 22.9 SE 8 9 1016.9 - 2.0 - - - - - - -
19/07:00pm 22.9 SE 10 13 1016.6 - 2.0 - - - - - - -
19/06:30pm 22.9 ESE 9 13 1016.3 - 1.8 - - - - - - -
19/06:00pm 22.9 E 7 8 1016.1 - 1.8 Recent precip. - - - - - -
19/05:30pm 23.0 E 8 9 1015.5 - 1.8 - - - - - - -
19/05:00pm 23.3 ESE 8 10 1015.6 - 0.8 - - - - - - -
19/04:30pm 23.4 SE 7 9 1015.5 - 0.2 - - - - - - -
19/04:00pm 23.6 SE 9 10 1015.6 - 0.2 - - - - - - -
19/03:30pm 23.7 E 7 8 1015.3 - 0.2 - - - - - - -
19/03:00pm 24.0 ESE 9 10 1015.4 - 0.2 - - - - - - -
19/02:30pm 24.7 E 8 9 1015.2 - 0.2 - - - - - - -
19/02:00pm 25.8 E 7 8 1015.7 - 0.2 - - - - - - -
19/01:30pm 27.2 E 9 10 1016.0 - 0.2 - - - - - - -
19/01:00pm 27.7 E 8 9 1016.4 - 0.2 - - - - - - -
19/12:30pm 26.6 E 8 9 1016.4 - 0.2 - - - - - - -
19/12:00pm 25.5 E 8 9 1016.9 - 0.2 - - - - - - -
19/11:30am 24.9 ESE 8 10 1017.4 - 0.2 - - - - - - -
19/11:00am 25.3 SE 9 11 1017.8 - 0.2 - - - - - - -
19/10:30am 25.6 SE 9 12 1017.9 - 0.2 - - - - - - -
19/10:00am 25.1 SE 9 9 1018.1 - 0.0 - - - - - - -
19/09:30am 25.0 SE 7 8 1018.3 - 0.0 - - - - - - -
19/09:00am 25.2 SSE 8 9 1018.4 - 1.6 - - - - - - -
19/08:30am 24.7 SSE 8 10 1018.3 - 1.6 - - - - - - -
19/08:00am 23.8 SSE 7 8 1018.1 - 1.6 - - - - - - -
19/07:30am 24.0 SSE 7 8 1017.8 - 1.6 - - - - - - -
19/07:00am 23.4 SSE 6 8 1017.6 - 1.6 - - - - - - -

Other Formats:

Comma delimited format used in spreadsheet applications
http://www.bom.gov.au/fwo/IDQ60701/IDQ60701.94580.axf

JavaScript Object Notation format (JSON) in row-major order
http://www.bom.gov.au/fwo/IDQ60701/IDQ60701.94580.json